sensor_id;sensor_type;location;lat;lon;timestamp;pressure;altitude;pressure_sealevel;temperature;humidity
40155;BME280;25875;48.202;16.334;2023-05-02T00:01:31;99013.75;;;14.92;50.26
40155;BME280;25875;48.202;16.334;2023-05-02T00:03:58;99012.03;;;14.91;50.29
40155;BME280;25875;48.202;16.334;2023-05-02T00:06:25;99021.75;;;14.92;50.33
40155;BME280;25875;48.202;16.334;2023-05-02T00:08:53;99010.34;;;14.90;50.54
40155;BME280;25875;48.202;16.334;2023-05-02T00:11:20;99015.69;;;14.90;50.84
40155;BME280;25875;48.202;16.334;2023-05-02T00:13:47;99009.38;;;14.91;51.02
40155;BME280;25875;48.202;16.334;2023-05-02T00:16:14;99014.81;;;14.90;51.30
40155;BME280;25875;48.202;16.334;2023-05-02T00:18:41;98490.00;;;11.69;51.03
40155;BME280;25875;48.202;16.334;2023-05-02T00:21:07;99018.34;;;14.90;51.30
40155;BME280;25875;48.202;16.334;2023-05-02T00:23:34;99017.50;;;14.90;51.46
40155;BME280;25875;48.202;16.334;2023-05-02T00:26:02;99015.69;;;14.90;52.06
40155;BME280;25875;48.202;16.334;2023-05-02T00:28:29;99015.69;;;14.90;52.15
40155;BME280;25875;48.202;16.334;2023-05-02T00:30:56;99009.63;;;14.88;52.02
40155;BME280;25875;48.202;16.334;2023-05-02T00:33:23;99010.59;;;14.87;52.41
40155;BME280;25875;48.202;16.334;2023-05-02T00:35:50;99000.03;;;14.86;52.54
40155;BME280;25875;48.202;16.334;2023-05-02T00:38:17;99010.69;;;14.86;52.69
40155;BME280;25875;48.202;16.334;2023-05-02T00:40:44;98994.09;;;14.82;52.48
40155;BME280;25875;48.202;16.334;2023-05-02T00:43:13;99010.81;;;14.84;52.74
40155;BME280;25875;48.202;16.334;2023-05-02T00:45:41;99012.63;;;14.84;52.55
40155;BME280;25875;48.202;16.334;2023-05-02T00:48:09;99022.34;;;14.85;52.59
40155;BME280;25875;48.202;16.334;2023-05-02T00:50:37;99017.97;;;14.84;52.68
40155;BME280;25875;48.202;16.334;2023-05-02T00:53:04;99016.16;;;14.84;52.68
40155;BME280;25875;48.202;16.334;2023-05-02T00:55:31;99026.84;;;14.84;52.81
40155;BME280;25875;48.202;16.334;2023-05-02T00:57:59;99023.31;;;14.84;52.92
40155;BME280;25875;48.202;16.334;2023-05-02T01:00:35;99021.72;;;14.81;54.07
40155;BME280;25875;48.202;16.334;2023-05-02T01:03:16;98961.47;;;14.43;53.92
40155;BME280;25875;48.202;16.334;2023-05-02T01:05:53;99034.22;;;14.81;53.93
40155;BME280;25875;48.202;16.334;2023-05-02T01:08:29;99036.03;;;14.80;54.34
40155;BME280;25875;48.202;16.334;2023-05-02T01:11:02;99027.19;;;14.80;54.12
40155;BME280;25875;48.202;16.334;2023-05-02T01:13:32;98953.69;;;14.29;54.12
40155;BME280;25875;48.202;16.334;2023-05-02T01:16:01;99041.50;;;14.79;54.37
40155;BME280;25875;48.202;16.334;2023-05-02T01:18:31;99035.44;;;14.77;54.65
40155;BME280;25875;48.202;16.334;2023-05-02T01:21:02;99031.91;;;14.76;54.29
40155;BME280;25875;48.202;16.334;2023-05-02T01:23:37;99041.72;;;14.75;55.06
40155;BME280;25875;48.202;16.334;2023-05-02T01:26:13;99033.84;;;14.74;55.46
40155;BME280;25875;48.202;16.334;2023-05-02T01:28:54;99033.00;;;14.73;56.54
40155;BME280;25875;48.202;16.334;2023-05-02T01:31:24;99036.63;;;14.72;54.88
40155;BME280;25875;48.202;16.334;2023-05-02T01:33:52;99013.56;;;14.60;55.34
40155;BME280;25875;48.202;16.334;2023-05-02T01:36:21;99035.28;;;14.67;54.98
40155;BME280;25875;48.202;16.334;2023-05-02T01:38:49;99041.59;;;14.66;55.40
40155;BME280;25875;48.202;16.334;2023-05-02T01:41:17;99032.13;;;14.62;55.59
40155;BME280;25875;48.202;16.334;2023-05-02T01:43:44;98971.81;;;14.13;55.56
40155;BME280;25875;48.202;16.334;2023-05-02T01:46:13;99027.97;;;14.58;56.15
40155;BME280;25875;48.202;16.334;2023-05-02T01:48:43;99035.19;;;14.56;55.73
40155;BME280;25875;48.202;16.334;2023-05-02T01:51:14;99040.75;;;14.53;55.65
40155;BME280;25875;48.202;16.334;2023-05-02T01:53:43;99037.47;;;14.49;55.84
40155;BME280;25875;48.202;16.334;2023-05-02T01:56:11;99038.56;;;14.47;55.59
40155;BME280;25875;48.202;16.334;2023-05-02T01:58:40;99043.28;;;14.43;55.80
40155;BME280;25875;48.202;16.334;2023-05-02T02:01:08;99037.94;;;14.43;55.91
40155;BME280;25875;48.202;16.334;2023-05-02T02:03:37;99047.88;;;14.41;55.91
40155;BME280;25875;48.202;16.334;2023-05-02T02:06:04;99028.38;;;14.40;55.64
40155;BME280;25875;48.202;16.334;2023-05-02T02:08:32;99045.31;;;14.39;55.84
40155;BME280;25875;48.202;16.334;2023-05-02T02:11:03;99046.28;;;14.38;56.32
40155;BME280;25875;48.202;16.334;2023-05-02T02:13:38;99048.97;;;14.38;56.09
40155;BME280;25875;48.202;16.334;2023-05-02T02:16:07;99045.44;;;14.38;55.80
40155;BME280;25875;48.202;16.334;2023-05-02T02:18:38;99039.25;;;14.37;56.01
40155;BME280;25875;48.202;16.334;2023-05-02T02:21:06;99042.28;;;14.33;56.51
40155;BME280;25875;48.202;16.334;2023-05-02T02:23:35;99038.13;;;14.29;56.15
40155;BME280;25875;48.202;16.334;2023-05-02T02:26:04;98939.63;;;13.57;55.74
40155;BME280;25875;48.202;16.334;2023-05-02T02:28:33;99045.53;;;14.25;56.11
40155;BME280;25875;48.202;16.334;2023-05-02T02:31:00;99044.78;;;14.23;55.96
40155;BME280;25875;48.202;16.334;2023-05-02T02:33:29;99042.22;;;14.22;56.11
40155;BME280;25875;48.202;16.334;2023-05-02T02:36:03;99048.66;;;14.19;56.67
40155;BME280;25875;48.202;16.334;2023-05-02T02:38:37;99048.66;;;14.19;56.56
40155;BME280;25875;48.202;16.334;2023-05-02T02:41:12;99047.78;;;14.19;56.39
40155;BME280;25875;48.202;16.334;2023-05-02T02:43:46;98997.13;;;13.84;56.43
40155;BME280;25875;48.202;16.334;2023-05-02T02:46:27;99063.91;;;14.17;56.43
40155;BME280;25875;48.202;16.334;2023-05-02T02:48:59;99054.09;;;14.18;56.02
40155;BME280;25875;48.202;16.334;2023-05-02T02:51:44;99059.53;;;14.16;57.31
40155;BME280;25875;48.202;16.334;2023-05-02T02:54:15;99059.53;;;14.16;56.14
40155;BME280;25875;48.202;16.334;2023-05-02T02:56:48;99065.81;;;14.15;56.43
40155;BME280;25875;48.202;16.334;2023-05-02T02:59:21;99066.56;;;14.17;56.84
40155;BME280;25875;48.202;16.334;2023-05-02T03:01:55;99062.94;;;14.18;56.39
40155;BME280;25875;48.202;16.334;2023-05-02T03:04:25;99065.59;;;14.18;56.32
40155;BME280;25875;48.202;16.334;2023-05-02T03:06:54;99070.94;;;14.18;56.16
40155;BME280;25875;48.202;16.334;2023-05-02T03:09:21;99075.28;;;14.19;56.17
40155;BME280;25875;48.202;16.334;2023-05-02T03:11:47;99077.97;;;14.19;56.33
40155;BME280;25875;48.202;16.334;2023-05-02T03:14:14;99083.28;;;14.19;56.26
40155;BME280;25875;48.202;16.334;2023-05-02T03:16:41;99087.78;;;14.19;56.46
40155;BME280;25875;48.202;16.334;2023-05-02T03:19:08;99089.94;;;14.13;56.80
40155;BME280;25875;48.202;16.334;2023-05-02T03:21:34;99094.63;;;14.10;56.68
40155;BME280;25875;48.202;16.334;2023-05-02T03:24:04;99095.81;;;14.06;57.10
40155;BME280;25875;48.202;16.334;2023-05-02T03:26:30;99098.38;;;14.07;56.83
40155;BME280;25875;48.202;16.334;2023-05-02T03:28:57;99095.59;;;14.09;56.67
40155;BME280;25875;48.202;16.334;2023-05-02T03:31:24;99098.16;;;14.10;56.89
40155;BME280;25875;48.202;16.334;2023-05-02T03:33:51;99096.34;;;14.11;56.79
40155;BME280;25875;48.202;16.334;2023-05-02T03:36:17;99102.75;;;14.08;56.83
40155;BME280;25875;48.202;16.334;2023-05-02T03:38:44;99099.09;;;14.09;56.63
40155;BME280;25875;48.202;16.334;2023-05-02T03:41:12;99103.69;;;14.07;56.93
40155;BME280;25875;48.202;16.334;2023-05-02T03:43:38;99103.69;;;14.07;56.88
40155;BME280;25875;48.202;16.334;2023-05-02T03:46:06;99105.50;;;14.07;56.67
40155;BME280;25875;48.202;16.334;2023-05-02T03:48:34;99099.28;;;13.95;56.80
40155;BME280;25875;48.202;16.334;2023-05-02T03:51:01;99066.75;;;13.66;56.79
40155;BME280;25875;48.202;16.334;2023-05-02T03:53:28;99101.38;;;14.03;56.67
40155;BME280;25875;48.202;16.334;2023-05-02T03:55:56;99112.03;;;14.03;56.63
40155;BME280;25875;48.202;16.334;2023-05-02T03:58:24;99112.03;;;14.03;56.72
40155;BME280;25875;48.202;16.334;2023-05-02T04:00:51;99121.84;;;14.02;57.05
40155;BME280;25875;48.202;16.334;2023-05-02T04:03:18;99123.66;;;14.02;56.80
40155;BME280;25875;48.202;16.334;2023-05-02T04:05:45;99127.16;;;14.02;57.04
40155;BME280;25875;48.202;16.334;2023-05-02T04:08:11;99128.88;;;14.03;56.95
40155;BME280;25875;48.202;16.334;2023-05-02T04:10:39;99129.72;;;14.04;57.14
40155;BME280;25875;48.202;16.334;2023-05-02T04:13:05;99129.84;;;14.02;56.77
40155;BME280;25875;48.202;16.334;2023-05-02T04:15:33;99142.41;;;14.00;57.03
40155;BME280;25875;48.202;16.334;2023-05-02T04:18:00;99144.22;;;14.00;57.23
40155;BME280;25875;48.202;16.334;2023-05-02T04:20:28;99154.88;;;14.00;57.01
40155;BME280;25875;48.202;16.334;2023-05-02T04:22:55;99149.56;;;14.00;57.42
40155;BME280;25875;48.202;16.334;2023-05-02T04:25:21;99160.97;;;14.02;57.19
40155;BME280;25875;48.202;16.334;2023-05-02T04:27:48;99168.94;;;14.02;57.12
40155;BME280;25875;48.202;16.334;2023-05-02T04:30:15;99162.66;;;14.03;57.16
40155;BME280;25875;48.202;16.334;2023-05-02T04:32:43;99159.88;;;14.04;57.14
40155;BME280;25875;48.202;16.334;2023-05-02T04:35:09;99168.63;;;14.06;57.28
40155;BME280;25875;48.202;16.334;2023-05-02T04:37:36;99166.69;;;14.08;56.98
40155;BME280;25875;48.202;16.334;2023-05-02T04:40:03;99167.66;;;14.07;57.35
40155;BME280;25875;48.202;16.334;2023-05-02T04:42:30;99160.63;;;14.06;57.21
40155;BME280;25875;48.202;16.334;2023-05-02T04:44:57;99169.59;;;14.05;57.15
40155;BME280;25875;48.202;16.334;2023-05-02T04:47:24;99169.69;;;14.04;57.27
40155;BME280;25875;48.202;16.334;2023-05-02T04:49:52;99171.41;;;14.05;57.55
40155;BME280;25875;48.202;16.334;2023-05-02T04:52:18;99174.91;;;14.05;57.17
40155;BME280;25875;48.202;16.334;2023-05-02T04:54:45;99171.41;;;14.05;57.56
40155;BME280;25875;48.202;16.334;2023-05-02T04:57:12;99167.03;;;14.04;57.67
40155;BME280;25875;48.202;16.334;2023-05-02T04:59:38;99175.03;;;14.04;57.60
40155;BME280;25875;48.202;16.334;2023-05-02T05:02:05;99181.31;;;14.03;57.82
40155;BME280;25875;48.202;16.334;2023-05-02T05:04:32;99181.94;;;14.06;57.47
40155;BME280;25875;48.202;16.334;2023-05-02T05:07:00;99181.94;;;14.06;57.74
40155;BME280;25875;48.202;16.334;2023-05-02T05:09:27;99189.72;;;14.09;57.84
40155;BME280;25875;48.202;16.334;2023-05-02T05:11:54;99191.53;;;14.09;57.75
40155;BME280;25875;48.202;16.334;2023-05-02T05:14:20;99198.34;;;14.13;57.57
40155;BME280;25875;48.202;16.334;2023-05-02T05:16:48;99200.03;;;14.14;57.48
40155;BME280;25875;48.202;16.334;2023-05-02T05:19:15;99199.81;;;14.17;57.49
40155;BME280;25875;48.202;16.334;2023-05-02T05:21:42;99198.84;;;14.18;57.84
40155;BME280;25875;48.202;16.334;2023-05-02T05:24:10;99205.78;;;14.21;57.45
40155;BME280;25875;48.202;16.334;2023-05-02T05:26:36;99209.06;;;14.24;57.32
40155;BME280;25875;48.202;16.334;2023-05-02T05:29:03;99202.78;;;14.25;57.68
40155;BME280;25875;48.202;16.334;2023-05-02T05:31:29;99182.13;;;14.16;57.18
40155;BME280;25875;48.202;16.334;2023-05-02T05:33:56;99182.97;;;14.17;57.34
40155;BME280;25875;48.202;16.334;2023-05-02T05:36:23;99217.16;;;14.35;57.47
40155;BME280;25875;48.202;16.334;2023-05-02T05:38:50;99210.63;;;14.39;57.68
40155;BME280;25875;48.202;16.334;2023-05-02T05:41:18;99214.03;;;14.41;57.78
40155;BME280;25875;48.202;16.334;2023-05-02T05:43:45;99212.00;;;14.45;57.47
40155;BME280;25875;48.202;16.334;2023-05-02T05:46:12;99212.63;;;14.49;57.49
40155;BME280;25875;48.202;16.334;2023-05-02T05:48:38;99218.69;;;14.51;57.24
40155;BME280;25875;48.202;16.334;2023-05-02T05:51:06;99215.81;;;14.54;57.18
40155;BME280;25875;48.202;16.334;2023-05-02T05:53:32;99216.66;;;14.54;57.70
40155;BME280;25875;48.202;16.334;2023-05-02T05:56:07;99225.38;;;14.56;58.20
40155;BME280;25875;48.202;16.334;2023-05-02T05:58:36;99235.00;;;14.59;57.46
40155;BME280;25875;48.202;16.334;2023-05-02T06:01:03;99236.28;;;14.66;57.76
40155;BME280;25875;48.202;16.334;2023-05-02T06:03:30;99241.28;;;14.70;57.28
40155;BME280;25875;48.202;16.334;2023-05-02T06:05:57;99243.50;;;14.77;57.64
40155;BME280;25875;48.202;16.334;2023-05-02T06:08:24;99239.75;;;14.79;57.34
40155;BME280;25875;48.202;16.334;2023-05-02T06:10:50;99235.78;;;14.85;57.38
40155;BME280;25875;48.202;16.334;2023-05-02T06:13:17;99242.38;;;14.92;57.13
40155;BME280;25875;48.202;16.334;2023-05-02T06:15:45;99242.88;;;14.97;57.16
40155;BME280;25875;48.202;16.334;2023-05-02T06:18:12;99237.31;;;15.00;57.04
40155;BME280;25875;48.202;16.334;2023-05-02T06:20:39;99235.13;;;15.05;57.25
40155;BME280;25875;48.202;16.334;2023-05-02T06:23:06;99244.50;;;15.11;57.06
40155;BME280;25875;48.202;16.334;2023-05-02T06:25:36;99246.59;;;15.18;57.02
40155;BME280;25875;48.202;16.334;2023-05-02T06:28:03;99153.25;;;14.70;56.56
40155;BME280;25875;48.202;16.334;2023-05-02T06:30:29;99245.16;;;15.25;56.35
40155;BME280;25875;48.202;16.334;2023-05-02T06:32:58;99246.00;;;15.26;56.69
40155;BME280;25875;48.202;16.334;2023-05-02T06:35:24;99252.19;;;15.26;56.47
40155;BME280;25875;48.202;16.334;2023-05-02T06:37:51;99229.34;;;15.11;56.38
40155;BME280;25875;48.202;16.334;2023-05-02T06:40:18;99257.53;;;15.26;56.61
40155;BME280;25875;48.202;16.334;2023-05-02T06:42:44;99246.22;;;15.12;56.48
40155;BME280;25875;48.202;16.334;2023-05-02T06:45:11;99258.63;;;15.24;56.36
40155;BME280;25875;48.202;16.334;2023-05-02T06:47:38;99255.94;;;15.24;56.57
40155;BME280;25875;48.202;16.334;2023-05-02T06:50:07;99274.28;;;15.28;56.78
40155;BME280;25875;48.202;16.334;2023-05-02T06:52:34;99268.84;;;15.30;56.67
40155;BME280;25875;48.202;16.334;2023-05-02T06:55:01;99273.81;;;15.34;56.38
40155;BME280;25875;48.202;16.334;2023-05-02T06:57:27;99276.25;;;15.37;56.67
40155;BME280;25875;48.202;16.334;2023-05-02T06:59:54;99269.84;;;15.40;56.29
40155;BME280;25875;48.202;16.334;2023-05-02T07:02:21;99267.78;;;15.44;56.22
40155;BME280;25875;48.202;16.334;2023-05-02T07:04:48;99272.66;;;15.50;56.58
40155;BME280;25875;48.202;16.334;2023-05-02T07:07:16;99274.13;;;15.54;56.16
40155;BME280;25875;48.202;16.334;2023-05-02T07:09:44;99273.53;;;15.61;55.79
40155;BME280;25875;48.202;16.334;2023-05-02T07:12:11;99274.78;;;15.68;55.86
40155;BME280;25875;48.202;16.334;2023-05-02T07:14:38;99278.09;;;15.72;55.62
40155;BME280;25875;48.202;16.334;2023-05-02T07:17:04;99276.25;;;15.73;55.32
40155;BME280;25875;48.202;16.334;2023-05-02T07:19:31;99283.19;;;15.75;55.43
40155;BME280;25875;48.202;16.334;2023-05-02T07:21:58;99286.59;;;15.77;55.06
40155;BME280;25875;48.202;16.334;2023-05-02T07:24:26;99282.94;;;15.78;54.73
40155;BME280;25875;48.202;16.334;2023-05-02T07:26:52;99282.94;;;15.78;55.16
40155;BME280;25875;48.202;16.334;2023-05-02T07:29:19;99289.16;;;15.79;55.01
40155;BME280;25875;48.202;16.334;2023-05-02T07:31:46;99290.59;;;15.83;55.35
40155;BME280;25875;48.202;16.334;2023-05-02T07:34:13;99287.69;;;15.86;54.75
40155;BME280;25875;48.202;16.334;2023-05-02T07:36:39;99287.56;;;15.87;55.19
40155;BME280;25875;48.202;16.334;2023-05-02T07:39:06;99287.47;;;15.89;54.83
40155;BME280;25875;48.202;16.334;2023-05-02T07:41:34;99291.47;;;15.94;54.84
40155;BME280;25875;48.202;16.334;2023-05-02T07:44:01;99298.16;;;16.00;54.81
40155;BME280;25875;48.202;16.334;2023-05-02T07:46:28;99303.25;;;16.03;54.91
40155;BME280;25875;48.202;16.334;2023-05-02T07:48:55;99306.56;;;16.07;54.67
40155;BME280;25875;48.202;16.334;2023-05-02T07:51:22;99309.94;;;16.09;54.89
40155;BME280;25875;48.202;16.334;2023-05-02T07:53:50;99320.75;;;16.07;54.11
40155;BME280;25875;48.202;16.334;2023-05-02T07:56:20;99322.94;;;16.02;54.53
40155;BME280;25875;48.202;16.334;2023-05-02T07:58:48;99320.63;;;15.97;54.27
40155;BME280;25875;48.202;16.334;2023-05-02T08:01:15;99320.88;;;15.94;54.85
40155;BME280;25875;48.202;16.334;2023-05-02T08:03:43;99326.09;;;15.96;54.81
40155;BME280;25875;48.202;16.334;2023-05-02T08:06:10;99322.34;;;15.98;54.82
40155;BME280;25875;48.202;16.334;2023-05-02T08:08:37;99325.00;;;15.98;54.47
40155;BME280;25875;48.202;16.334;2023-05-02T08:11:04;99319.78;;;15.97;54.17
40155;BME280;25875;48.202;16.334;2023-05-02T08:13:31;99321.59;;;15.96;54.18
40155;BME280;25875;48.202;16.334;2023-05-02T08:15:59;99327.56;;;16.00;54.20
40155;BME280;25875;48.202;16.334;2023-05-02T08:18:26;99327.56;;;16.00;54.29
40155;BME280;25875;48.202;16.334;2023-05-02T08:20:54;99323.91;;;16.01;54.19
40155;BME280;25875;48.202;16.334;2023-05-02T08:23:22;99334.72;;;15.99;54.17
40155;BME280;25875;48.202;16.334;2023-05-02T08:25:49;99334.59;;;16.01;54.08
40155;BME280;25875;48.202;16.334;2023-05-02T08:28:16;99337.16;;;16.02;54.07
40155;BME280;25875;48.202;16.334;2023-05-02T08:30:42;99335.09;;;16.06;54.21
40155;BME280;25875;48.202;16.334;2023-05-02T08:33:11;99336.56;;;16.10;54.30
40155;BME280;25875;48.202;16.334;2023-05-02T08:35:37;99331.94;;;16.12;54.18
40155;BME280;25875;48.202;16.334;2023-05-02T08:38:04;99338.75;;;16.16;54.10
40155;BME280;25875;48.202;16.334;2023-05-02T08:40:34;99343.88;;;16.19;54.31
40155;BME280;25875;48.202;16.334;2023-05-02T08:43:02;99342.91;;;16.20;54.16
40155;BME280;25875;48.202;16.334;2023-05-02T08:45:30;99341.94;;;16.21;54.08
40155;BME280;25875;48.202;16.334;2023-05-02T08:48:05;99345.31;;;16.23;54.10
40155;BME280;25875;48.202;16.334;2023-05-02T08:50:36;99342.16;;;16.18;54.33
40155;BME280;25875;48.202;16.334;2023-05-02T08:53:04;99350.06;;;16.20;53.99
40155;BME280;25875;48.202;16.334;2023-05-02T08:55:31;99350.78;;;16.22;54.32
40155;BME280;25875;48.202;16.334;2023-05-02T08:57:59;99342.78;;;16.22;54.34
40155;BME280;25875;48.202;16.334;2023-05-02T09:00:28;99345.22;;;16.25;54.16
40155;BME280;25875;48.202;16.334;2023-05-02T09:03:05;99342.41;;;16.26;54.19
40155;BME280;25875;48.202;16.334;2023-05-02T09:05:38;99346.66;;;16.29;54.14
40155;BME280;25875;48.202;16.334;2023-05-02T09:08:06;99345.09;;;16.26;53.77
40155;BME280;25875;48.202;16.334;2023-05-02T09:10:33;99343.25;;;16.27;54.24
40155;BME280;25875;48.202;16.334;2023-05-02T09:13:28;99339.50;;;16.29;54.48
40155;BME280;25875;48.202;16.334;2023-05-02T09:15:59;99333.41;;;16.27;54.10
40155;BME280;25875;48.202;16.334;2023-05-02T09:18:31;99333.41;;;16.27;54.44
40155;BME280;25875;48.202;16.334;2023-05-02T09:21:00;99286.50;;;16.01;54.43
40155;BME280;25875;48.202;16.334;2023-05-02T09:23:37;99327.22;;;16.27;54.25
40155;BME280;25875;48.202;16.334;2023-05-02T09:26:13;99331.84;;;16.25;54.64
40155;BME280;25875;48.202;16.334;2023-05-02T09:28:42;99338.88;;;16.26;54.82
40155;BME280;25875;48.202;16.334;2023-05-02T09:31:12;99340.34;;;16.30;54.82
40155;BME280;25875;48.202;16.334;2023-05-02T09:33:39;99334.88;;;16.31;54.22
40155;BME280;25875;48.202;16.334;2023-05-02T09:36:09;99286.75;;;15.98;54.50
40155;BME280;25875;48.202;16.334;2023-05-02T09:38:38;99341.31;;;16.40;54.62
40155;BME280;25875;48.202;16.334;2023-05-02T09:41:05;99339.88;;;16.47;54.36
40155;BME280;25875;48.202;16.334;2023-05-02T09:43:32;99345.69;;;16.52;54.40
40155;BME280;25875;48.202;16.334;2023-05-02T09:46:00;99340.59;;;16.60;54.30
40155;BME280;25875;48.202;16.334;2023-05-02T09:48:28;99348.88;;;16.68;54.33
40155;BME280;25875;48.202;16.334;2023-05-02T09:50:55;99348.50;;;16.73;53.90
40155;BME280;25875;48.202;16.334;2023-05-02T09:53:25;99356.03;;;16.79;53.57
40155;BME280;25875;48.202;16.334;2023-05-02T09:55:59;99361.53;;;16.78;53.66
40155;BME280;25875;48.202;16.334;2023-05-02T09:58:26;99374.06;;;16.77;53.82
40155;BME280;25875;48.202;16.334;2023-05-02T10:00:55;99361.63;;;16.76;53.99
40155;BME280;25875;48.202;16.334;2023-05-02T10:03:23;99365.03;;;16.78;53.78
40155;BME280;25875;48.202;16.334;2023-05-02T10:05:50;99358.59;;;16.81;53.63
40155;BME280;25875;48.202;16.334;2023-05-02T10:08:19;99367.34;;;16.83;53.61
40155;BME280;25875;48.202;16.334;2023-05-02T10:10:51;99362.59;;;16.86;53.65
40155;BME280;25875;48.202;16.334;2023-05-02T10:13:20;99357.00;;;16.89;53.53
40155;BME280;25875;48.202;16.334;2023-05-02T10:15:50;99365.75;;;16.91;53.45
40155;BME280;25875;48.202;16.334;2023-05-02T10:18:22;99365.63;;;16.93;53.66
40155;BME280;25875;48.202;16.334;2023-05-02T10:20:56;99370.00;;;16.94;53.59
40155;BME280;25875;48.202;16.334;2023-05-02T10:23:26;99372.09;;;16.90;53.67
40155;BME280;25875;48.202;16.334;2023-05-02T10:25:56;99366.97;;;16.87;53.65
40155;BME280;25875;48.202;16.334;2023-05-02T10:28:23;99310.81;;;16.43;53.63
40155;BME280;25875;48.202;16.334;2023-05-02T10:30:50;99363.56;;;16.85;53.68
40155;BME280;25875;48.202;16.334;2023-05-02T10:33:19;99377.69;;;16.87;54.07
40155;BME280;25875;48.202;16.334;2023-05-02T10:35:46;99382.19;;;16.87;53.82
40155;BME280;25875;48.202;16.334;2023-05-02T10:38:14;99323.09;;;16.45;54.02
40155;BME280;25875;48.202;16.334;2023-05-02T10:40:48;99372.59;;;16.73;54.02
40155;BME280;25875;48.202;16.334;2023-05-02T10:43:23;99381.72;;;16.71;54.02
40155;BME280;25875;48.202;16.334;2023-05-02T10:45:51;99362.22;;;16.57;54.36
40155;BME280;25875;48.202;16.334;2023-05-02T10:48:20;99385.38;;;16.70;54.63
40155;BME280;25875;48.202;16.334;2023-05-02T10:50:48;99390.59;;;16.71;54.56
40155;BME280;25875;48.202;16.334;2023-05-02T10:53:23;99402.28;;;16.70;54.70
40155;BME280;25875;48.202;16.334;2023-05-02T10:56:12;99405.03;;;16.57;54.46
40155;BME280;25875;48.202;16.334;2023-05-02T10:58:41;99340.22;;;16.09;54.78
40155;BME280;25875;48.202;16.334;2023-05-02T11:01:31;99392.03;;;16.42;55.02
40155;BME280;25875;48.202;16.334;2023-05-02T11:03:59;99391.16;;;16.41;55.36
40155;BME280;25875;48.202;16.334;2023-05-02T11:06:27;99395.78;;;16.39;55.10
40155;BME280;25875;48.202;16.334;2023-05-02T11:09:30;99378.63;;;16.30;55.26
40155;BME280;25875;48.202;16.334;2023-05-02T11:11:57;99382.66;;;16.25;55.31
40155;BME280;25875;48.202;16.334;2023-05-02T11:14:43;99393.94;;;16.28;55.39
40155;BME280;25875;48.202;16.334;2023-05-02T11:17:12;99391.91;;;16.32;55.41
40155;BME280;25875;48.202;16.334;2023-05-02T11:22:51;99398.81;;;16.34;55.64
40155;BME280;25875;48.202;16.334;2023-05-02T11:25:29;99398.59;;;16.38;56.39
40155;BME280;25875;48.202;16.334;2023-05-02T11:27:56;99401.03;;;16.41;55.33
40155;BME280;25875;48.202;16.334;2023-05-02T11:30:37;99402.84;;;16.40;55.70
40155;BME280;25875;48.202;16.334;2023-05-02T11:33:17;99373.66;;;16.26;56.14
40155;BME280;25875;48.202;16.334;2023-05-02T11:35:45;99398.34;;;16.41;55.50
40155;BME280;25875;48.202;16.334;2023-05-02T11:38:18;99398.94;;;16.44;56.30
40155;BME280;25875;48.202;16.334;2023-05-02T11:40:53;99394.22;;;16.48;56.09
40155;BME280;25875;48.202;16.334;2023-05-02T11:43:21;99388.00;;;16.47;55.38
40155;BME280;25875;48.202;16.334;2023-05-02T11:45:51;99307.38;;;15.96;55.69
40155;BME280;25875;48.202;16.334;2023-05-02T11:48:19;99389.72;;;16.48;55.66
40155;BME280;25875;48.202;16.334;2023-05-02T11:50:47;99387.53;;;16.53;55.70
40155;BME280;25875;48.202;16.334;2023-05-02T11:53:16;99399.56;;;16.59;55.46
40155;BME280;25875;48.202;16.334;2023-05-02T11:55:44;99392.66;;;16.67;55.73
40155;BME280;25875;48.202;16.334;2023-05-02T11:58:13;99389.00;;;16.80;55.48
40155;BME280;25875;48.202;16.334;2023-05-02T12:00:40;99400.69;;;16.90;55.33
40155;BME280;25875;48.202;16.334;2023-05-02T12:03:19;99398.13;;;16.99;55.94
40155;BME280;25875;48.202;16.334;2023-05-02T12:05:46;99392.25;;;17.06;54.91
40155;BME280;25875;48.202;16.334;2023-05-02T12:08:18;99394.69;;;17.09;55.04
40155;BME280;25875;48.202;16.334;2023-05-02T12:10:45;99394.31;;;17.13;54.79
40155;BME280;25875;48.202;16.334;2023-05-02T12:13:11;99387.84;;;17.16;54.71
40155;BME280;25875;48.202;16.334;2023-05-02T12:15:38;99385.06;;;17.17;54.85
40155;BME280;25875;48.202;16.334;2023-05-02T12:18:05;99393.81;;;17.19;54.77
40155;BME280;25875;48.202;16.334;2023-05-02T12:20:34;99389.81;;;17.14;54.68
40155;BME280;25875;48.202;16.334;2023-05-02T12:23:03;99387.38;;;17.11;54.91
40155;BME280;25875;48.202;16.334;2023-05-02T12:25:36;99394.44;;;17.12;54.86
40155;BME280;25875;48.202;16.334;2023-05-02T12:28:03;99391.50;;;17.15;55.08
40155;BME280;25875;48.202;16.334;2023-05-02T12:30:31;99392.13;;;17.18;54.56
40155;BME280;25875;48.202;16.334;2023-05-02T12:32:59;99395.28;;;17.23;54.60
40155;BME280;25875;48.202;16.334;2023-05-02T12:35:27;99334.88;;;16.76;54.44
40155;BME280;25875;48.202;16.334;2023-05-02T12:38:07;99355.06;;;16.91;54.62
40155;BME280;25875;48.202;16.334;2023-05-02T12:40:35;99392.63;;;17.23;54.66
40155;BME280;25875;48.202;16.334;2023-05-02T12:43:03;99401.13;;;17.28;54.49
40155;BME280;25875;48.202;16.334;2023-05-02T12:45:32;99399.16;;;17.30;53.94
40155;BME280;25875;48.202;16.334;2023-05-02T12:47:59;99395.25;;;17.35;54.24
40155;BME280;25875;48.202;16.334;2023-05-02T12:50:35;99367.78;;;17.21;53.55
40155;BME280;25875;48.202;16.334;2023-05-02T12:53:04;99401.22;;;17.38;53.86
40155;BME280;25875;48.202;16.334;2023-05-02T12:55:32;99403.91;;;17.38;53.36
40155;BME280;25875;48.202;16.334;2023-05-02T12:57:59;99406.97;;;17.34;53.65
40155;BME280;25875;48.202;16.334;2023-05-02T13:00:26;99399.31;;;17.29;53.73
40155;BME280;25875;48.202;16.334;2023-05-02T13:02:53;99412.09;;;17.25;53.52